createdAt,value
2018-12-24T00:00:13.590Z,631.1
2018-12-24T00:01:15.736Z,630.7
2018-12-24T00:02:18.160Z,630.9
2018-12-24T00:03:20.703Z,632
2018-12-24T00:04:22.851Z,632.6
2018-12-24T00:05:24.713Z,632.5
2018-12-24T00:06:27.176Z,632.8
2018-12-24T00:07:29.620Z,632.8
2018-12-24T00:08:31.507Z,632.5
2018-12-24T00:09:33.948Z,632.7
2018-12-24T00:10:36.382Z,632.4
2018-12-24T00:11:38.831Z,633.7
2018-12-24T00:12:41.283Z,634.8
2018-12-24T00:13:43.711Z,633.3
2018-12-24T00:14:46.158Z,632.7
2018-12-24T00:15:48.590Z,633
2018-12-24T00:16:50.743Z,633
2018-12-24T00:17:52.893Z,634
2018-12-24T00:18:55.050Z,634
2018-12-24T00:19:56.951Z,633.2
2018-12-24T00:20:58.839Z,635
2018-12-24T00:22:00.989Z,634.7
2018-12-24T00:23:03.440Z,634.5
2018-12-24T00:24:05.878Z,634.8
2018-12-24T00:25:08.041Z,635.3
2018-12-24T00:26:09.936Z,635.6
2018-12-24T00:27:12.383Z,635.2
2018-12-24T00:28:14.643Z,635.4
2018-12-24T00:29:17.073Z,635.4
2018-12-24T00:30:19.221Z,636.4
2018-12-24T00:31:21.676Z,635.9
2018-12-24T00:32:23.825Z,635.2
2018-12-24T00:33:25.450Z,635
2018-12-24T00:34:27.602Z,635.2
2018-12-24T00:35:29.761Z,635.9
2018-12-24T00:36:31.912Z,635.5
2018-12-24T00:37:34.065Z,636.2
2018-12-24T00:38:36.513Z,636.1
2018-12-24T00:39:38.944Z,636.8
2018-12-24T00:40:41.361Z,635.1
2018-12-24T00:41:43.790Z,635.4
2018-12-24T00:42:46.218Z,637.5
2018-12-24T00:43:48.651Z,637.9
2018-12-24T00:44:51.082Z,637.2
2018-12-24T00:45:53.544Z,637.5
2018-12-24T00:46:55.710Z,637.7
2018-12-24T00:47:58.143Z,636.2
2018-12-24T00:49:00.572Z,637.6
2018-12-24T00:50:02.720Z,637.7
2018-12-24T00:51:05.153Z,637.3
2018-12-24T00:52:07.583Z,638.4
2018-12-24T00:53:09.744Z,636.6
2018-12-24T00:54:12.172Z,637.6
2018-12-24T00:55:14.591Z,638.4
2018-12-24T00:56:17.018Z,637.2
2018-12-24T00:57:19.162Z,639.3
2018-12-24T00:58:21.314Z,637
2018-12-24T00:59:23.484Z,637.8
2018-12-24T01:00:25.914Z,636.9
2018-12-24T01:01:27.536Z,637.7
2018-12-24T01:02:29.682Z,639.6
2018-12-24T01:03:31.913Z,638
2018-12-24T01:04:34.352Z,637.6
2018-12-24T01:05:36.528Z,638.9
2018-12-24T01:06:38.959Z,637.6
2018-12-24T01:07:41.389Z,637.4
2018-12-24T01:08:43.563Z,638.1
2018-12-24T01:09:45.732Z,638.5
2018-12-24T01:10:47.344Z,638.1
2018-12-24T01:11:48.947Z,638.5
2018-12-24T01:12:51.367Z,638.3
2018-12-24T01:13:53.803Z,638.1
2018-12-24T01:14:56.240Z,636.9
2018-12-24T01:15:58.672Z,638.2
2018-12-24T01:17:00.850Z,638.7
2018-12-24T01:18:03.282Z,637.8
2018-12-24T01:19:05.722Z,638.5
2018-12-24T01:20:08.148Z,638.1
2018-12-24T01:21:10.598Z,638
2018-12-24T01:22:13.022Z,639.2
2018-12-24T01:23:15.204Z,640
2018-12-24T01:24:17.618Z,639
2018-12-24T01:25:20.044Z,639.4
2018-12-24T01:26:22.201Z,638.7
2018-12-24T01:27:24.629Z,638.9
2018-12-24T01:28:27.133Z,639.9
2018-12-24T01:29:29.558Z,638.9
2018-12-24T01:30:31.893Z,640.2
2018-12-24T01:31:34.331Z,640.7
2018-12-24T01:32:36.752Z,640.4
2018-12-24T01:33:39.192Z,640.1
2018-12-24T01:34:41.388Z,639.6
2018-12-24T01:35:43.527Z,639.8
2018-12-24T01:36:45.968Z,638.8
2018-12-24T01:37:48.402Z,640.8
2018-12-24T01:38:50.832Z,640.5
2018-12-24T01:39:52.992Z,641.3
2018-12-24T01:40:55.575Z,639.4
2018-12-24T01:41:57.993Z,639.9
2018-12-24T01:42:59.866Z,640.6
2018-12-24T01:44:02.290Z,640.3
2018-12-24T01:45:04.722Z,639.9
2018-12-24T01:46:06.614Z,641.8
2018-12-24T01:47:08.774Z,640.9
2018-12-24T01:48:10.636Z,641.7
2018-12-24T01:49:13.059Z,641.3
2018-12-24T01:50:15.522Z,641.1
2018-12-24T01:51:17.956Z,641.1
2018-12-24T01:52:20.121Z,641
2018-12-24T01:53:22.549Z,641.6
2018-12-24T01:54:24.978Z,641.5
2018-12-24T01:55:27.414Z,642.1
2018-12-24T01:56:29.836Z,642
2018-12-24T01:57:32.270Z,641.9
2018-12-24T01:58:34.718Z,640.7
2018-12-24T01:59:37.151Z,641.4
2018-12-24T02:00:39.584Z,641.8
2018-12-24T02:01:42.018Z,642.3
2018-12-24T02:02:44.440Z,642.2
2018-12-24T02:03:46.873Z,640.2
2018-12-24T02:04:49.312Z,642.5
2018-12-24T02:05:51.748Z,641.7
2018-12-24T02:06:54.172Z,642.2
2018-12-24T02:07:56.302Z,643.5
2018-12-24T02:08:58.192Z,643.8
2018-12-24T02:10:00.272Z,644.1
2018-12-24T02:11:02.708Z,644.7
2018-12-24T02:12:05.131Z,644.5
2018-12-24T02:13:07.561Z,644.9
2018-12-24T02:14:09.700Z,645.9
2018-12-24T02:15:11.861Z,646.5
2018-12-24T02:16:14.290Z,648.7
2018-12-24T02:17:16.150Z,648
2018-12-24T02:18:18.324Z,648.1
2018-12-24T02:19:20.750Z,647.5
2018-12-24T02:20:23.181Z,647.9
2018-12-24T02:21:25.353Z,648.4
2018-12-24T02:22:27.526Z,647.8
2018-12-24T02:23:29.655Z,646.9
2018-12-24T02:24:32.079Z,647.3
2018-12-24T02:25:34.240Z,647.5
2018-12-24T02:26:36.680Z,647.2
2018-12-24T02:27:39.112Z,647.1
2018-12-24T02:28:41.536Z,647.5
2018-12-24T02:29:43.955Z,648.9
2018-12-24T02:30:46.129Z,648.5
2018-12-24T02:31:48.288Z,647.7
2018-12-24T02:32:50.472Z,647.5
2018-12-24T02:33:52.921Z,648.4
2018-12-24T02:34:55.352Z,649.6
2018-12-24T02:35:57.522Z,649.6
2018-12-24T02:36:59.947Z,649.8
2018-12-24T02:38:02.379Z,648.5
2018-12-24T02:39:04.814Z,650.2
2018-12-24T02:40:06.974Z,650.5
2018-12-24T02:41:09.392Z,649.7
2018-12-24T02:42:11.831Z,651.5
2018-12-24T02:43:13.982Z,650
2018-12-24T02:44:16.218Z,649.8
2018-12-24T02:45:18.102Z,651.7
2018-12-24T02:46:20.530Z,650
2018-12-24T02:47:22.683Z,650.8
2018-12-24T02:48:24.822Z,651.7
2018-12-24T02:49:26.976Z,651.5
2018-12-24T02:50:29.124Z,652.2
2018-12-24T02:51:31.555Z,651.3
2018-12-24T02:52:33.976Z,652.5
2018-12-24T02:53:36.415Z,650.8
2018-12-24T02:54:38.852Z,651.4
2018-12-24T02:55:40.293Z,652.5
2018-12-24T02:56:42.170Z,651.8
2018-12-24T02:57:44.063Z,652.6
2018-12-24T02:58:46.490Z,653.2
2018-12-24T02:59:48.647Z,653
2018-12-24T03:00:50.800Z,652.7
2018-12-24T03:01:52.968Z,652.1
2018-12-24T03:02:55.381Z,651.7
2018-12-24T03:03:57.810Z,652.5
2018-12-24T03:04:59.977Z,652
2018-12-24T03:06:02.393Z,653.4
2018-12-24T03:07:04.839Z,651.8
2018-12-24T03:08:07.259Z,651.5
2018-12-24T03:09:09.408Z,651.6
2018-12-24T03:10:11.830Z,651.7
2018-12-24T03:11:14.263Z,651.2
2018-12-24T03:12:16.131Z,652.2
2018-12-24T03:13:18.286Z,652.9
2018-12-24T03:14:20.151Z,652.4
2018-12-24T03:15:22.600Z,652.2
2018-12-24T03:16:25.033Z,652
2018-12-24T03:17:27.173Z,653.1
2018-12-24T03:18:29.337Z,651.8
2018-12-24T03:19:31.497Z,651.6
2018-12-24T03:20:33.956Z,652
2018-12-24T03:21:36.395Z,652.7
2018-12-24T03:22:38.648Z,652.5
2018-12-24T03:23:40.811Z,652.7
2018-12-24T03:24:43.231Z,652.9
2018-12-24T03:25:45.371Z,654
2018-12-24T03:26:47.805Z,653.3
2018-12-24T03:27:49.971Z,652.7
2018-12-24T03:28:52.402Z,651
2018-12-24T03:29:54.307Z,651
2018-12-24T03:30:56.741Z,651.5
2018-12-24T03:31:59.172Z,650.3
2018-12-24T03:33:01.707Z,650.4
2018-12-24T03:34:04.129Z,650.7
2018-12-24T03:35:06.577Z,650.1
2018-12-24T03:36:09.021Z,650.6
2018-12-24T03:37:11.160Z,650.3
2018-12-24T03:38:13.730Z,650.7
2018-12-24T03:39:15.879Z,649.7
2018-12-24T03:40:17.775Z,649.2
2018-12-24T03:41:20.404Z,649
2018-12-24T03:42:22.859Z,647.1
2018-12-24T03:43:25.290Z,646.4
2018-12-24T03:44:27.728Z,644.2
2018-12-24T03:45:29.632Z,642.4
2018-12-24T03:46:32.071Z,641.5
2018-12-24T03:47:34.496Z,637.5
2018-12-24T03:48:36.927Z,633.6
2018-12-24T03:49:39.081Z,632.4
2018-12-24T03:50:41.513Z,628.2
2018-12-24T03:51:43.401Z,627.2
2018-12-24T03:52:45.831Z,626.8
2018-12-24T03:53:47.694Z,626.8
2018-12-24T03:54:50.116Z,628.6
2018-12-24T03:55:52.549Z,629
2018-12-24T03:56:54.711Z,629.1
2018-12-24T03:57:56.857Z,630.1
2018-12-24T03:58:59.292Z,630.7
2018-12-24T04:00:01.453Z,630.5
2018-12-24T04:01:03.881Z,630
2018-12-24T04:02:06.021Z,630.7
2018-12-24T04:03:08.438Z,630.3
2018-12-24T04:04:10.879Z,630.1
2018-12-24T04:05:12.829Z,630.1
2018-12-24T04:06:14.982Z,629.8
2018-12-24T04:07:17.145Z,629.7
2018-12-24T04:08:19.307Z,630
2018-12-24T04:09:21.450Z,629.9
2018-12-24T04:10:23.600Z,629.5
2018-12-24T04:11:26.285Z,629
2018-12-24T04:12:28.149Z,628.1
2018-12-24T04:13:30.579Z,627.6
2018-12-24T04:14:32.191Z,627.5
2018-12-24T04:15:34.619Z,626.7
2018-12-24T04:16:37.299Z,626.2
2018-12-24T04:17:39.451Z,626
2018-12-24T04:18:41.601Z,625.6
2018-12-24T04:19:43.741Z,625.6
2018-12-24T04:20:46.155Z,625.7
2018-12-24T04:21:48.590Z,625.3
2018-12-24T04:22:51.045Z,625
2018-12-24T04:23:53.213Z,625.2
2018-12-24T04:24:55.643Z,624.7
2018-12-24T04:25:58.080Z,625.2
2018-12-24T04:27:00.518Z,624
2018-12-24T04:28:02.958Z,624
2018-12-24T04:29:05.194Z,623.4
2018-12-24T04:30:07.633Z,623.3
2018-12-24T04:31:09.801Z,623
2018-12-24T04:32:11.958Z,623
2018-12-24T04:33:13.849Z,622.9
2018-12-24T04:34:16.289Z,622.7
2018-12-24T04:35:18.802Z,622.6
2018-12-24T04:36:20.401Z,622.7
2018-12-24T04:37:22.282Z,622.4
2018-12-24T04:38:24.721Z,621.9
2018-12-24T04:39:27.011Z,621.5
2018-12-24T04:40:29.467Z,621.4
2018-12-24T04:41:31.898Z,620.9
2018-12-24T04:42:34.061Z,620.8
2018-12-24T04:43:36.241Z,620.2
2018-12-24T04:44:38.127Z,620.3
2018-12-24T04:45:40.280Z,620.5
2018-12-24T04:46:42.432Z,619.6
2018-12-24T04:47:44.861Z,618.8
2018-12-24T04:48:47.293Z,618.4
2018-12-24T04:49:49.719Z,617.6
2018-12-24T04:50:51.581Z,616.9
2018-12-24T04:51:53.999Z,616
2018-12-24T04:52:56.433Z,616.3
2018-12-24T04:53:58.847Z,614.9
2018-12-24T04:55:01.286Z,614.9
2018-12-24T04:56:03.713Z,614.1
2018-12-24T04:57:06.145Z,614.2
2018-12-24T04:58:08.319Z,613.1
2018-12-24T04:59:10.577Z,613.6
2018-12-24T05:00:12.731Z,613.5
2018-12-24T05:01:15.242Z,613.6
2018-12-24T05:02:17.531Z,612.7
2018-12-24T05:03:19.397Z,611.6
2018-12-24T05:04:21.552Z,612.2
2018-12-24T05:05:23.711Z,611.7
2018-12-24T05:06:26.141Z,611.4
2018-12-24T05:07:28.303Z,611
2018-12-24T05:08:30.469Z,610.4
2018-12-24T05:09:32.719Z,611.1
2018-12-24T05:10:35.163Z,610.4
2018-12-24T05:11:36.757Z,609.7
2018-12-24T05:12:39.181Z,609.6
2018-12-24T05:13:42.741Z,609.2
2018-12-24T05:14:45.191Z,608.6
2018-12-24T05:15:47.632Z,609
2018-12-24T05:16:50.051Z,607.4
2018-12-24T05:17:52.479Z,607.2
2018-12-24T05:18:54.648Z,606.8
2018-12-24T05:19:56.901Z,606.7
2018-12-24T05:20:58.819Z,606.1
2018-12-24T05:22:01.233Z,606
2018-12-24T05:23:03.669Z,605.5
2018-12-24T05:24:06.088Z,605.4
2018-12-24T05:25:08.264Z,604.4
2018-12-24T05:26:10.698Z,604.2
2018-12-24T05:27:13.137Z,604.6
2018-12-24T05:28:15.574Z,603.7
2018-12-24T05:29:18.010Z,603.1
2018-12-24T05:30:19.883Z,602.3
2018-12-24T05:31:21.765Z,601.8
2018-12-24T05:32:24.205Z,601.1
2018-12-24T05:33:26.623Z,600.6
2018-12-24T05:34:29.047Z,600.5
2018-12-24T05:35:30.931Z,599.4
2018-12-24T05:36:32.845Z,599.6
2018-12-24T05:37:35.271Z,598.4
2018-12-24T05:38:37.697Z,598.9
2018-12-24T05:39:39.855Z,597.9
2018-12-24T05:40:42.277Z,597.6
2018-12-24T05:41:44.703Z,596.8
2018-12-24T05:42:47.211Z,596.8
2018-12-24T05:43:51.519Z,595.9
2018-12-24T05:44:53.953Z,595.2
2018-12-24T05:45:55.844Z,595.1
2018-12-24T05:46:58.001Z,594.8
2018-12-24T05:48:00.439Z,594.4
2018-12-24T05:49:02.857Z,595.2
2018-12-24T05:50:05.299Z,594.1
2018-12-24T05:51:07.738Z,593.8
2018-12-24T05:52:10.186Z,593.3
2018-12-24T05:53:12.349Z,593.8
2018-12-24T05:54:14.484Z,593.2
2018-12-24T05:55:16.910Z,592.6
2018-12-24T05:56:19.068Z,592
2018-12-24T05:57:21.493Z,591.8
2018-12-24T05:58:23.642Z,591.6
2018-12-24T05:59:26.070Z,590.9
2018-12-24T06:00:27.948Z,590.3
2018-12-24T06:01:30.089Z,588.9
2018-12-24T06:02:32.525Z,588.6
2018-12-24T06:03:34.678Z,588.9
2018-12-24T06:04:37.118Z,587.5
2018-12-24T06:05:39.296Z,587.2
2018-12-24T06:06:41.732Z,586.7
2018-12-24T06:07:44.160Z,586.1
2018-12-24T06:08:46.608Z,585
2018-12-24T06:09:49.030Z,585.2
2018-12-24T06:10:51.458Z,584.3
2018-12-24T06:11:53.618Z,584.4
2018-12-24T06:12:56.042Z,584
2018-12-24T06:14:00.087Z,583.7
2018-12-24T06:15:02.537Z,583.6
2018-12-24T06:16:04.692Z,583.2
2018-12-24T06:17:07.120Z,582.9
2018-12-24T06:18:09.273Z,583.4
2018-12-24T06:19:11.430Z,582.2
2018-12-24T06:20:13.863Z,581.5
2018-12-24T06:21:16.284Z,580.7
2018-12-24T06:22:18.462Z,580.5
2018-12-24T06:23:20.894Z,580.4
2018-12-24T06:24:23.062Z,579.5
2018-12-24T06:25:25.491Z,580.3
2018-12-24T06:26:27.630Z,579.5
2018-12-24T06:27:30.086Z,579.3
2018-12-24T06:28:32.514Z,579
2018-12-24T06:29:34.944Z,579.1
2018-12-24T06:30:37.096Z,578.3
2018-12-24T06:31:39.522Z,578
2018-12-24T06:32:41.952Z,577.3
2018-12-24T06:33:44.393Z,576.8
2018-12-24T06:34:46.822Z,576.8
2018-12-24T06:35:48.694Z,575.9
2018-12-24T06:36:50.858Z,575.3
2018-12-24T06:37:53.003Z,574.8
2018-12-24T06:38:55.425Z,573.6
2018-12-24T06:39:57.915Z,573.6
2018-12-24T06:41:00.349Z,573
2018-12-24T06:42:01.986Z,573.3
2018-12-24T06:43:04.116Z,572.8
2018-12-24T06:45:11.525Z,572.6
2018-12-24T06:46:13.961Z,572.2
2018-12-24T06:47:15.547Z,571.4
2018-12-24T06:48:17.961Z,571.7
2018-12-24T06:49:20.441Z,569.4
2018-12-24T06:50:24.041Z,569.3
2018-12-24T06:51:26.210Z,568.8
2018-12-24T06:52:28.636Z,569
2018-12-24T06:53:31.062Z,568.6
2018-12-24T06:54:32.935Z,568.1
2018-12-24T06:55:35.385Z,567.3
2018-12-24T06:56:37.825Z,566.6
2018-12-24T06:57:40.343Z,566.8
2018-12-24T06:58:42.777Z,566.2
2018-12-24T06:59:45.216Z,565.9
2018-12-24T07:00:47.643Z,565.4
2018-12-24T07:01:50.059Z,564.9
2018-12-24T07:02:52.491Z,565.1
2018-12-24T07:03:54.949Z,564.1
2018-12-24T07:04:57.370Z,564.4
2018-12-24T07:05:59.525Z,563.4
2018-12-24T07:07:01.956Z,563.6
2018-12-24T07:08:04.208Z,563.2
2018-12-24T07:09:06.070Z,563.8
2018-12-24T07:10:08.497Z,563.2
2018-12-24T07:11:10.949Z,562.1
2018-12-24T07:12:13.365Z,562.6
2018-12-24T07:13:15.519Z,562.4
2018-12-24T07:14:17.965Z,561.9
2018-12-24T07:15:20.399Z,562.3
2018-12-24T07:16:22.831Z,561.8
2018-12-24T07:17:24.983Z,561.4
2018-12-24T07:18:27.431Z,561.4
2018-12-24T07:19:29.301Z,562.4
2018-12-24T07:20:31.753Z,562.2
2018-12-24T07:21:33.925Z,561.7
2018-12-24T07:22:36.075Z,560.8
2018-12-24T07:23:38.500Z,560.7
2018-12-24T07:24:40.943Z,560.5
2018-12-24T07:25:43.381Z,560.7
2018-12-24T07:26:45.811Z,560.7
2018-12-24T07:27:48.243Z,559.6
2018-12-24T07:28:58.735Z,558.7
2018-12-24T07:29:57.030Z,558.4
2018-12-24T07:30:59.193Z,557.9
2018-12-24T07:32:01.135Z,558.1
2018-12-24T07:33:03.327Z,557.7
2018-12-24T07:34:05.753Z,557.6
2018-12-24T07:35:07.637Z,557.3
2018-12-24T07:36:09.523Z,556.5
2018-12-24T07:37:11.675Z,556.2
2018-12-24T07:38:14.105Z,555.5
2018-12-24T07:39:16.370Z,555.1
2018-12-24T07:40:18.793Z,555
2018-12-24T07:41:20.935Z,554.6
2018-12-24T07:42:23.370Z,554
2018-12-24T07:43:25.533Z,553.2
2018-12-24T07:44:27.686Z,552.5
2018-12-24T07:45:29.573Z,552.1
2018-12-24T07:46:32.032Z,552.3
2018-12-24T07:47:34.224Z,552.2
2018-12-24T07:48:36.662Z,551.5
2018-12-24T07:49:39.115Z,551.1
2018-12-24T07:50:41.277Z,550.5
2018-12-24T07:51:43.419Z,550.7
2018-12-24T07:52:45.574Z,550.3
2018-12-24T07:53:47.738Z,550.1
2018-12-24T07:54:49.618Z,549.3
2018-12-24T07:55:52.071Z,549
2018-12-24T07:56:53.954Z,549
2018-12-24T07:57:56.380Z,548.2
2018-12-24T07:58:58.803Z,548.2
2018-12-24T08:00:01.134Z,548
2018-12-24T08:01:03.567Z,547.9
2018-12-24T08:02:05.980Z,547
2018-12-24T08:03:08.420Z,547.1
2018-12-24T08:04:10.852Z,546.9
2018-12-24T08:05:13.272Z,546.5
2018-12-24T08:06:15.703Z,546.4
2018-12-24T08:07:18.159Z,545.6
2018-12-24T08:08:20.320Z,545.5
2018-12-24T08:09:22.758Z,545.6
2018-12-24T08:10:24.992Z,545.1
2018-12-24T08:11:27.156Z,545.2
2018-12-24T08:12:29.037Z,544.7
2018-12-24T08:13:31.481Z,544
2018-12-24T08:14:35.106Z,544.1
2018-12-24T08:15:37.542Z,544
2018-12-24T08:16:39.969Z,543.8
2018-12-24T08:17:42.405Z,543.9
2018-12-24T08:18:44.578Z,543.7
2018-12-24T08:19:47.004Z,543.5
2018-12-24T08:20:49.260Z,543.1
2018-12-24T08:21:51.690Z,543.1
2018-12-24T08:22:53.854Z,542.9
2018-12-24T08:23:56.295Z,543.2
2018-12-24T08:24:58.816Z,543
2018-12-24T08:26:00.700Z,542.7
2018-12-24T08:27:02.606Z,542.5
2018-12-24T08:28:04.761Z,541.4
2018-12-24T08:29:06.387Z,541.2
2018-12-24T08:30:08.553Z,541.3
2018-12-24T08:31:10.977Z,540.9
2018-12-24T08:32:13.559Z,540.6
2018-12-24T08:33:15.991Z,540.5
2018-12-24T08:34:18.163Z,540.3
2018-12-24T08:35:20.368Z,540.5
2018-12-24T08:36:22.535Z,540.6
2018-12-24T08:37:24.691Z,540.6
2018-12-24T08:38:27.127Z,540
2018-12-24T08:39:29.577Z,540.1
2018-12-24T08:40:32.025Z,540.4
2018-12-24T08:41:34.470Z,539.5
2018-12-24T08:42:36.893Z,539.3
2018-12-24T08:43:39.323Z,539
2018-12-24T08:44:43.925Z,538.6
2018-12-24T08:45:46.369Z,538.4
2018-12-24T08:46:48.793Z,538.2
2018-12-24T08:47:50.653Z,538.4
2018-12-24T08:48:53.085Z,538.3
2018-12-24T08:49:55.267Z,538
2018-12-24T08:50:57.147Z,537.7
2018-12-24T08:51:59.272Z,537.4
2018-12-24T08:53:01.703Z,537.2
2018-12-24T08:54:03.873Z,537
2018-12-24T08:55:06.035Z,536.7
2018-12-24T08:56:08.487Z,536.8
2018-12-24T08:57:10.647Z,536.3
2018-12-24T08:58:12.808Z,536
2018-12-24T08:59:15.253Z,535.7
2018-12-24T09:00:17.682Z,535.4
2018-12-24T09:01:19.855Z,535.1
2018-12-24T09:02:22.306Z,534.1
2018-12-24T09:03:24.476Z,534.1
2018-12-24T09:04:26.921Z,533.7
2018-12-24T09:05:28.773Z,533.6
2018-12-24T09:06:30.697Z,533.6
2018-12-24T09:07:32.868Z,533.3
2018-12-24T09:08:35.291Z,532.9
2018-12-24T09:09:37.723Z,533
2018-12-24T09:10:39.886Z,533
2018-12-24T09:11:42.319Z,532.6
2018-12-24T09:12:44.750Z,532.5
2018-12-24T09:13:46.929Z,532.3
2018-12-24T09:15:54.331Z,532.1
2018-12-24T09:16:56.480Z,531.9
2018-12-24T09:17:58.658Z,531.7
2018-12-24T09:19:01.082Z,531.7
2018-12-24T09:20:03.524Z,531.5
2018-12-24T09:21:05.691Z,531.7
2018-12-24T09:22:08.134Z,531.2
2018-12-24T09:23:10.363Z,531.1
2018-12-24T09:24:12.512Z,531.5
2018-12-24T09:25:14.687Z,531
2018-12-24T09:26:16.841Z,530.6
2018-12-24T09:27:19.270Z,530.6
2018-12-24T09:28:21.705Z,530.6
2018-12-24T09:29:23.897Z,530.3
2018-12-24T09:30:26.034Z,530.2
2018-12-24T09:31:28.184Z,530.1
2018-12-24T09:32:30.619Z,530.3
2018-12-24T09:33:32.800Z,530.1
2018-12-24T09:34:35.220Z,529.5
2018-12-24T09:35:37.371Z,529
2018-12-24T09:36:39.794Z,528.8
2018-12-24T09:37:42.245Z,529.1
2018-12-24T09:38:44.674Z,529
2018-12-24T09:39:47.101Z,528.7
2018-12-24T09:40:49.524Z,528.5
2018-12-24T09:41:51.668Z,528.5
2018-12-24T09:44:02.447Z,528.1
2018-12-24T09:45:04.880Z,528.2
2018-12-24T09:46:07.050Z,527.6
2018-12-24T09:47:09.214Z,528.1
2018-12-24T09:48:11.643Z,527.6
2018-12-24T09:49:14.106Z,527.1
2018-12-24T09:50:16.524Z,527.4
2018-12-24T09:51:18.961Z,527
2018-12-24T09:52:21.134Z,526.7
2018-12-24T09:53:23.559Z,526.7
2018-12-24T09:54:26.002Z,526.8
2018-12-24T09:55:28.183Z,527.7
2018-12-24T09:56:30.083Z,527.4
2018-12-24T09:57:32.587Z,527.3
2018-12-24T09:58:35.030Z,527.2
2018-12-24T09:59:37.218Z,526.6
2018-12-24T10:00:39.753Z,527.1
2018-12-24T10:01:42.172Z,527.5
2018-12-24T10:02:44.065Z,527.5
2018-12-24T10:03:46.239Z,527.3
2018-12-24T10:04:48.404Z,526.9
2018-12-24T10:05:50.582Z,527.5
2018-12-24T10:06:53.024Z,527.1
2018-12-24T10:07:55.159Z,527.5
2018-12-24T10:08:57.365Z,527.5
2018-12-24T10:09:59.541Z,527.7
2018-12-24T10:11:01.393Z,526.8
2018-12-24T10:12:03.660Z,526.9
2018-12-24T10:13:06.092Z,526.4
2018-12-24T10:14:07.976Z,526.5
2018-12-24T10:15:10.409Z,526.2
2018-12-24T10:16:12.837Z,525.8
2018-12-24T10:17:15.274Z,525.6
2018-12-24T10:18:17.404Z,525.6
2018-12-24T10:19:19.558Z,525.8
2018-12-24T10:20:21.994Z,525.1
2018-12-24T10:21:24.426Z,525.5
2018-12-24T10:22:26.604Z,525.3
2018-12-24T10:23:28.500Z,525.7
2018-12-24T10:24:30.663Z,526.1
2018-12-24T10:25:33.109Z,526.1
2018-12-24T10:26:35.547Z,526.1
2018-12-24T10:27:37.688Z,526.1
2018-12-24T10:28:40.120Z,525.4
2018-12-24T10:29:42.313Z,525
2018-12-24T10:30:44.472Z,524.8
2018-12-24T10:31:46.894Z,525.2
2018-12-24T10:32:49.351Z,524.8
2018-12-24T10:33:51.793Z,524.7
2018-12-24T10:34:54.215Z,524.7
2018-12-24T10:35:56.552Z,524.3
2018-12-24T10:36:59.004Z,524.4
2018-12-24T10:38:01.174Z,524.6
2018-12-24T10:39:03.611Z,524.1
2018-12-24T10:40:05.776Z,524.3
2018-12-24T10:41:07.938Z,524.6
2018-12-24T10:42:10.369Z,524.6
2018-12-24T10:43:12.816Z,524.1
2018-12-24T10:44:15.330Z,524
2018-12-24T10:45:18.886Z,524.2
2018-12-24T10:46:20.785Z,524
2018-12-24T10:47:23.205Z,524.1
2018-12-24T10:48:25.629Z,524.2
2018-12-24T10:49:28.053Z,524
2018-12-24T10:50:30.235Z,524.4
2018-12-24T10:51:32.397Z,524
2018-12-24T10:52:34.830Z,524.4
2018-12-24T10:53:37.032Z,524.3
2018-12-24T10:54:39.182Z,524.1
2018-12-24T10:55:41.364Z,523.9
2018-12-24T10:56:43.554Z,523.8
2018-12-24T10:57:45.442Z,523.9
2018-12-24T10:58:47.878Z,523.9
2018-12-24T10:59:50.327Z,524
2018-12-24T11:00:52.501Z,524.2
2018-12-24T11:01:54.664Z,523.9
2018-12-24T11:02:57.103Z,524.2
2018-12-24T11:03:59.541Z,523.9
2018-12-24T11:05:02.044Z,523.6
2018-12-24T11:06:04.475Z,523.8
2018-12-24T11:07:06.897Z,523.5
2018-12-24T11:08:09.067Z,523.7
2018-12-24T11:09:11.505Z,523.5
2018-12-24T11:10:13.401Z,523.3
2018-12-24T11:11:15.950Z,523.2
2018-12-24T11:12:18.395Z,523.1
2018-12-24T11:13:20.829Z,523
2018-12-24T11:14:23.352Z,523.1
2018-12-24T11:15:27.253Z,523.2
2018-12-24T11:16:29.714Z,523.2
2018-12-24T11:17:32.144Z,523
2018-12-24T11:18:34.290Z,522.7
2018-12-24T11:19:36.755Z,522.4
2018-12-24T11:20:39.193Z,522.9
2018-12-24T11:21:41.383Z,523.1
2018-12-24T11:22:43.816Z,523
2018-12-24T11:23:46.274Z,522.9
2018-12-24T11:24:48.431Z,523.1
2018-12-24T11:25:50.860Z,523.1
2018-12-24T11:26:53.284Z,523.2
2018-12-24T11:27:55.720Z,523.3
2018-12-24T11:28:58.160Z,523.2
2018-12-24T11:30:00.376Z,523.6
2018-12-24T11:31:02.803Z,523
2018-12-24T11:32:04.975Z,523.1
2018-12-24T11:33:07.411Z,522.6
2018-12-24T11:34:09.826Z,522.7
2018-12-24T11:35:11.971Z,522.6
2018-12-24T11:36:14.145Z,522.5
2018-12-24T11:37:16.309Z,522.5
2018-12-24T11:38:18.573Z,522.3
2018-12-24T11:39:20.755Z,522.2
2018-12-24T11:40:23.179Z,522.6
2018-12-24T11:41:25.314Z,522.2
2018-12-24T11:42:28.094Z,522.5
2018-12-24T11:43:30.527Z,522.4
2018-12-24T11:44:32.683Z,522.1
2018-12-24T11:45:37.562Z,522.3
2018-12-24T11:46:39.702Z,521.8
2018-12-24T11:47:41.608Z,521.8
2018-12-24T11:48:43.493Z,521.8
2018-12-24T11:49:45.924Z,521.6
2018-12-24T11:50:48.365Z,521.7
2018-12-24T11:51:50.816Z,521.6
2018-12-24T11:52:53.253Z,521.8
2018-12-24T11:53:55.422Z,521.9
2018-12-24T11:54:57.874Z,522.1
2018-12-24T11:56:00.321Z,522.3
2018-12-24T11:57:02.755Z,522.5
2018-12-24T11:58:04.915Z,522.1
2018-12-24T11:59:07.082Z,522.5
2018-12-24T12:00:08.979Z,522.6
2018-12-24T12:01:11.413Z,522.7
2018-12-24T12:02:13.853Z,522.9
2018-12-24T12:03:15.751Z,522.8
2018-12-24T12:04:17.923Z,523.1
2018-12-24T12:05:20.379Z,522.8
2018-12-24T12:06:22.265Z,522.5
2018-12-24T12:07:24.701Z,522.4
2018-12-24T12:08:27.127Z,522.6
2018-12-24T12:09:29.270Z,522.6
2018-12-24T12:10:31.912Z,522.2
2018-12-24T12:11:34.135Z,522.3
2018-12-24T12:12:36.573Z,522
2018-12-24T12:13:39.000Z,522
2018-12-24T12:14:41.429Z,521.7
2018-12-24T12:15:44.632Z,522
2018-12-24T12:16:46.275Z,521.9
2018-12-24T12:17:48.144Z,521.4
2018-12-24T12:18:50.320Z,521.7
2018-12-24T12:19:52.227Z,521.5
2018-12-24T12:20:54.850Z,521.5
2018-12-24T12:21:57.004Z,521.5
2018-12-24T12:22:59.165Z,521.2
2018-12-24T12:24:01.583Z,521.3
2018-12-24T12:25:04.017Z,521.3
2018-12-24T12:26:06.460Z,521.2
2018-12-24T12:27:08.355Z,521.1
2018-12-24T12:28:10.525Z,521.3
2018-12-24T12:29:12.953Z,521
2018-12-24T12:30:15.139Z,521.1
2018-12-24T12:31:17.561Z,521.2
2018-12-24T12:32:20.013Z,520.8
2018-12-24T12:33:22.445Z,520.2
2018-12-24T12:34:25.482Z,520.5
2018-12-24T12:35:27.927Z,520.4
2018-12-24T12:36:30.376Z,520
2018-12-24T12:37:32.815Z,520.2
2018-12-24T12:38:35.169Z,519.9
2018-12-24T12:39:37.610Z,519.7
2018-12-24T12:40:40.043Z,519.3
2018-12-24T12:41:43.300Z,518.9
2018-12-24T12:42:46.464Z,519.5
2018-12-24T12:43:48.892Z,519
2018-12-24T12:44:51.321Z,518.8
2018-12-24T12:45:53.763Z,519
2018-12-24T12:46:55.915Z,518.5
2018-12-24T12:47:59.498Z,518.4
2018-12-24T12:49:01.942Z,518.7
2018-12-24T12:50:04.387Z,518.2
2018-12-24T12:51:07.435Z,518.4
2018-12-24T12:52:10.091Z,518.3
2018-12-24T12:53:12.513Z,518.4
2018-12-24T12:54:14.707Z,517.9
2018-12-24T12:55:17.141Z,517.8
2018-12-24T12:56:19.305Z,517.7
2018-12-24T12:57:21.473Z,517.4
2018-12-24T12:58:23.906Z,517.4
2018-12-24T12:59:26.069Z,517.2
2018-12-24T13:00:28.513Z,517.1
2018-12-24T13:01:30.478Z,517.2
2018-12-24T13:02:32.648Z,516.9
2018-12-24T13:03:35.283Z,516.4
2018-12-24T13:04:37.152Z,516.4
2018-12-24T13:05:39.327Z,516
2018-12-24T13:06:41.453Z,515.9
2018-12-24T13:07:43.361Z,515.5
2018-12-24T13:08:45.777Z,515.5
2018-12-24T13:09:47.657Z,515.2
2018-12-24T13:10:49.835Z,515.2
2018-12-24T13:11:52.253Z,515
2018-12-24T13:12:55.243Z,514.9
2018-12-24T13:13:57.976Z,514.9
2018-12-24T13:15:00.407Z,514.5
2018-12-24T13:16:02.572Z,514.4
2018-12-24T13:17:04.713Z,514.1
2018-12-24T13:18:07.141Z,513.9
2018-12-24T13:19:09.565Z,514.3
2018-12-24T13:20:11.638Z,512.8
2018-12-24T13:21:15.826Z,512.9
2018-12-24T13:22:18.843Z,512.8
2018-12-24T13:23:21.689Z,512.8
2018-12-24T13:24:24.118Z,512.4
2018-12-24T13:25:26.603Z,512.4
2018-12-24T13:26:29.034Z,512.3
2018-12-24T13:27:31.455Z,512.3
2018-12-24T13:28:33.368Z,511.8
2018-12-24T13:29:35.805Z,511.8
2018-12-24T13:30:38.224Z,511.8
2018-12-24T13:31:40.704Z,512